Lumi/Jää/Keli Alkaa: 19-01-2019 17:00 Päättyy: 20-01-2019 08:00 Varoitus: Lumi/Jää/Keli Taso: Keltainen info button
suomi:
Liikennesää: Ajokeli muuttuu huonoksi iltapäivästä alkaen lumisateen ja pöllyävän lumen vuoksi.

svenska:
Trafikvädret: Väglaget blir dåligt från och med eftermiddagen p.g.a. snöfall och uppvirvlande snö.

english:
Traffic weather warning: Bad road conditions are expected from the afternoon on because of snow and blowing snow. 


Webkamera Lisätietoa Webcam


Varoitus: Lumi/Jää Lisätietoa

rain snow radar


Yksityisiä sääasemia lähellä:

Sääasema Juupajoki

Sääasema Orivesi

Sääasema Muurame

Sääasema Jyväskylä


Löydät sääaseman tiedot myös:

Finland Weather Exchange

European Weather Network

Weather Underground

AWEKAS



Säätiedot lähimmiltä METAR asemilta

   
EFHA - Halli (Fin-Afb), Finland
Etäisyys asemalta: Kaakko 25 km
Päivitetty: 19.01.2019 12:50
Pilvistä  
Pilvistä  
   Tuuli: Etelä 2.6 m/s
Tuuli: Etelä 2.6 m/s
Lämpötila: -9°C
Tuulen hyytävyys: -14°C
Kastepiste: -10°C
Kosteus: 93%
Ilmanpaine: 1001 hPa
Pilvisyys: Pilvistä
Näkyvyys: Enemmän kuin 10 km
Pilvitiedot: Pilvistä 335 m
EFHA 191050Z AUTO 17005KT 9999 OVC011 M09/M10 Q1001
EFJY - Jyvaskyla (Mil/Civ), Finland
Etäisyys asemalta: Koillinen 75 km
Päivitetty: 19.01.2019 12:50
Lumisadetta, Pilvistä  
Lumisadetta, Pilvistä  
   Tuuli: Lounas 2.1 m/s
Tuuli: Lounas 2.1 m/s
Lämpötila: -11°C
Tuulen hyytävyys: -16°C
Kastepiste: -12°C
Kosteus: 92%
Ilmanpaine: 1000 hPa
Pilvisyys: Pilvistä
Näkyvyys: 2 km
Pilvitiedot: Pilvistä 274 m
EFJY 191050Z AUTO 22004KT 1600 SN OVC009 M11/M12 Q1000
EFTP - Tampere/Pirkkala, Finland
Etäisyys asemalta: Lounas 81 km
Päivitetty: 19.01.2019 12:50
Vähäistä pilvisyyttä  
Vähäistä pilvisyyttä  
   Tuuli: Etelälounas 1 m/s
Tuuli: Etelälounas 1 m/s
Lämpötila: -12°C
Kastepiste: -14°C
Kosteus: 85%
Ilmanpaine: 1003 hPa
Pilvisyys: Vähäistä pilvisyyttä
Näkyvyys: Enemmän kuin 10 km
Pilvitiedot: Vähäistä pilvisyyttä 701 m
EFTP 191050Z AUTO 20002KT 9999 FEW023 M12/M14 Q1003
EFSI - Seinajoki-Ilmajoki, Finland
Etäisyys asemalta: Luode 114 km
Päivitetty: 19.01.2019 12:50
Selkeää  
Selkeää  
   Tuuli: Kaakko 0.5 m/s
Tuuli: Kaakko 0.5 m/s
Lämpötila: -16°C
Kastepiste: -18°C
Kosteus: 85%
Ilmanpaine: 1000 hPa
Näkyvyys: Enemmän kuin 10 km
Pilvitiedot: Selkeää
EFSI 191050Z AUTO 14001KT CAVOK M16/M18 Q1000
EFMI - Mikkeli, Finland
Etäisyys asemalta: Itäkaakko 147 km
Päivitetty: 19.01.2019 12:50
Heikkoja sadekuuroja, Lumisadetta, Pilvistä  
Heikkoja sadekuuroja, Lumisadetta, Pilvistä  
   Tuuli: Länsi 0.5 m/s
Tuuli: Länsi 0.5 m/s
Pilvisyys: Pilvistä
Näkyvyys: 2 km
Pilvitiedot: Pilvistä 122 m
EFMI 191050Z AUTO 27001KT 2400 -SHSN OVC004 ///// Q////
EFPO - Pori (Mil/Civ), Finland
Etäisyys asemalta: Länsilounas 154 km
Päivitetty: 19.01.2019 12:50
Vähäistä pilvisyyttä  
Vähäistä pilvisyyttä  
   Tuuli: Etelä 2.6 m/s
Tuuli: Etelä 2.6 m/s
Lämpötila: -5°C
Tuulen hyytävyys: -9°C
Kastepiste: -6°C
Kosteus: 93%
Ilmanpaine: 1002 hPa
Pilvisyys: Vähäistä pilvisyyttä
Näkyvyys: Enemmän kuin 10 km
Pilvitiedot: Vähäistä pilvisyyttä 610 m
EFPO 191050Z AUTO 17005KT 9999 FEW020/// M05/M06 Q1002
EFUT - Utti (Fin-Afb), Finland
Etäisyys asemalta: Kaakko 180 km
Päivitetty: 19.01.2019 12:50
Heikkoja lumijyväsiä, Utua, Pilvistä  
Heikkoja lumijyväsiä, Utua, Pilvistä  
   Tuuli: Lounas 1.5 m/s
Tuuli: Lounas 1.5 m/s
Lämpötila: -12°C
Tuulen hyytävyys: -16°C
Kastepiste: -13°C
Kosteus: 92%
Ilmanpaine: 1003 hPa
Pilvisyys: Pilvistä
Näkyvyys: 2 km
Pilvitiedot: Pilvistä 396 m
EFUT 191050Z AUTO 23003KT 1600 -SG BR OVC013 M12/M13 Q1003
EFVA - Vaasa, Finland
Etäisyys asemalta: Luode 180 km
Päivitetty: 19.01.2019 12:50
Selkeää  
Selkeää  
   Tuuli: Kaakko 3.1 m/s
Tuuli: Kaakko 3.1 m/s
Lämpötila: -12°C
Tuulen hyytävyys: -18°C
Kastepiste: -14°C
Kosteus: 85%
Ilmanpaine: 1000 hPa
Näkyvyys: Enemmän kuin 10 km
Pilvitiedot: Selkeää
EFVA 191050Z AUTO 14006KT CAVOK M12/M14 Q1000
EFHK - Helsinki/Vantaa, Finland
Etäisyys asemalta: Etelä 191 km
Päivitetty: 19.01.2019 12:50
Vähäistä pilvisyyttä  
Vähäistä pilvisyyttä  
   Tuuli: Lounas 3.1 m/s
Tuuli: Lounas 3.1 m/s
Lämpötila: -6°C
Tuulen hyytävyys: -11°C
Kastepiste: -7°C
Kosteus: 93%
Ilmanpaine: 1005 hPa
Pilvisyys: Vähäistä pilvisyyttä
Näkyvyys: Enemmän kuin 10 km
Pilvitiedot: Vähäistä pilvisyyttä 914 m
EFHK 191050Z 22006KT 9999 FEW030 M06/M07 Q1005 NOSIG

Alkuperäinen skripti  Saratoga-weather.org Sovitettu myös templatelle  Weerstation Leuven

Laitteet joita käytämme:

Sääasema
Davis VP2

Sääasemaohjelma
Cumulus

Sääaseman palvelin
HP ProBook 6460b

Palveluntarjoaja
Radicenter

Davis VP2

Cumulus

HP ProBook 6460b

Radicenter




Flag Counter Cumulus Top Weather Sites